Latest Coastal Weather Observations for Port Fairy

IDV60701

Issued at 5:21 am EDT Tuesday 23 December 2014 (issued every 10 minutes, with the page automatically refreshed every 10 minutes)

About coastal observations | Map of coastal stations | Coastal observations for VIC | Marine services | Other Formats
Station Details ID: 090175 Name: PORT FAIRY AWS Lat: -38.39 Lon: 142.23 Height: 10.0 m
Data from the previous 72 hours. | See also: Recent months at Port Fairy
Date/Time
EDT
Temp

°C
Wind Pressure Rain
since 9am
mm
Weather Cloud Vis
km
Sea
Height
m
Swell
Dir
 
Speed
knots
Gust
knots
hPa Trend Height
m
Period
s
Dir
23/05:00am 17.1 WNW 8 13 1006.8 - 0.2 - - - - - - -
23/04:30am 17.1 NW 4 7 1006.6 - 0.2 - - - - - - -
23/04:00am 16.9 NNW 5 6 1006.6 - 0.2 - - - - - - -
23/03:30am 16.8 NNW 3 4 1006.7 - 0.2 - - - - - - -
23/03:00am 16.8 NNW 4 7 1007.0 - 0.2 - - - - - - -
23/02:30am 16.8 NNW 2 4 1007.2 - 0.2 - - - - - - -
23/02:00am 16.8 WNW 2 3 1007.2 - 0.2 - - - - - - -
23/01:30am 16.8 NW 2 4 1007.5 - 0.2 - - - - - - -
23/01:00am 16.9 WNW 2 3 1007.5 - 0.0 - - - - - - -
23/12:30am 16.9 WNW 2 3 1007.6 - 0.0 - - - - - - -
23/12:00am 16.9 CALM 0 0 1007.5 - 0.0 - - - - - - -
 
Date/Time
EDT
Temp

°C
Wind Pressure Rain
since 9am
mm
Weather Cloud Vis
km
Sea
Height
m
Swell
Dir
 
Speed
knots
Gust
knots
hPa Trend Height
m
Period
s
Dir
22/11:30pm 17.1 W 1 3 1007.6 - 0.0 - - - - - - -
22/11:00pm 17.1 SE 3 5 1007.5 - 0.0 - - - - - - -
22/10:30pm 17.3 S 3 4 1007.3 - 0.0 - - - - - - -
22/10:00pm 17.5 SSW 4 6 1007.5 - 0.0 - - - - - - -
22/09:30pm 17.6 SW 2 3 1007.9 - 0.0 - - - - - - -
22/09:00pm 17.6 W 2 3 1007.8 - 0.0 - - - - - - -
22/08:30pm 17.7 ESE 4 9 1007.6 - 0.0 - - - - - - -
22/08:00pm 17.8 SE 6 9 1007.2 - 0.0 - - - - - - -
22/07:30pm 17.9 S 6 7 1006.9 - 0.0 - - - - - - -
22/07:00pm 18.3 S 4 6 1006.7 - 0.0 - - - - - - -
22/06:30pm 18.5 ESE 7 11 1005.9 - 0.0 - - - - - - -
22/06:00pm 18.9 ESE 7 12 1006.3 - 0.0 - - - - - - -
22/05:30pm 19.2 ESE 9 14 1005.9 - 0.0 - - - - - - -
22/05:00pm 19.6 SE 11 15 1006.0 - 0.0 - - - - - - -
22/04:30pm 19.5 SE 12 17 1006.7 - 0.0 - - - - - - -
22/04:00pm 19.4 SE 10 13 1007.6 - 0.0 - - - - - - -
22/03:30pm 20.8 SSE 8 16 1008.3 - 0.0 - - - - - - -
22/03:00pm 22.8 SSE 6 15 1008.3 - 0.0 - - - - - - -
22/02:30pm 23.9 E 6 8 1007.8 - 0.0 - - - - - - -
22/02:00pm 24.1 NE 6 11 1008.4 - 0.0 - - - - - - -
22/01:30pm 22.5 NE 9 13 1008.8 - 0.0 - - - - - - -
22/01:00pm 22.5 NNE 7 11 1009.8 - 0.0 - - - - - - -
22/12:30pm 21.0 NNE 10 17 1009.8 - 0.0 - - - - - - -
22/12:00pm 18.2 ENE 8 14 1009.3 - 0.0 - - - - - - -
22/11:30am 18.3 E 10 16 1009.7 - 0.0 - - - - - - -
22/11:00am 18.5 E 11 17 1010.3 - 0.0 - - - - - - -
22/10:30am 18.2 E 14 20 1010.6 - 0.0 - - - - - - -
22/10:00am 17.0 E 10 16 1011.5 - 0.0 - - - - - - -
22/09:30am 16.7 ESE 13 19 1011.8 - 0.0 - - - - - - -
22/09:00am 16.7 SE 13 17 1012.1 - 0.0 - - - - - - -
22/08:30am 16.3 ESE 9 14 1012.7 - 0.0 - - - - - - -
22/08:00am 16.1 ESE 6 8 1012.9 - 0.0 - - - - - - -
22/07:30am 15.8 ENE 2 5 1013.0 - 0.0 - - - - - - -
22/07:00am 15.8 ESE 7 11 1011.7 - 0.0 - - - - - - -
22/06:30am 15.8 CALM 0 2 1012.8 - 0.0 - - - - - - -
22/06:00am 15.9 ENE 5 8 1012.0 - 0.0 - - - - - - -
22/05:30am 15.9 E 6 10 1011.8 - 0.0 - - - - - - -
22/05:00am 16.5 E 11 16 1011.5 - 0.0 - - - - - - -
22/04:30am 16.3 ESE 12 17 1011.6 - 0.0 - - - - - - -
22/04:00am 16.1 ESE 10 15 1012.1 - 0.0 - - - - - - -
22/03:30am 15.9 ESE 10 13 1012.6 - 0.0 - - - - - - -
22/03:00am 15.8 ESE 11 15 1013.0 - 0.0 - - - - - - -
22/02:30am 15.6 SE 11 15 1013.2 - 0.0 - - - - - - -
22/02:00am 15.4 SE 11 14 1013.7 - 0.0 - - - - - - -
22/01:30am 15.6 SE 11 13 1013.7 - 0.0 - - - - - - -
22/01:00am 15.9 SE 10 13 1014.4 - 0.0 - - - - - - -
22/12:30am 16.4 SE 9 12 1014.7 - 0.0 - - - - - - -
22/12:00am 16.4 SE 9 13 1015.0 - 0.0 - - - - - - -
 
Date/Time
EDT
Temp

°C
Wind Pressure Rain
since 9am
mm
Weather Cloud Vis
km
Sea
Height
m
Swell
Dir
 
Speed
knots
Gust
knots
hPa Trend Height
m
Period
s
Dir
21/11:30pm 16.3 SE 10 13 1014.9 - 0.0 - - - - - - -
21/11:00pm 16.2 SE 10 13 1014.9 - 0.0 - - - - - - -
21/10:30pm 16.4 SE 11 15 1015.2 - 0.0 - - - - - - -
21/10:00pm 16.5 SE 10 13 1015.3 - 0.0 - - - - - - -
21/09:30pm 16.6 SSE 11 14 1014.9 - 0.0 - - - - - - -
21/09:00pm 16.7 SE 11 15 1014.6 - 0.0 - - - - - - -
21/08:30pm 16.7 SSE 11 15 1014.5 - 0.0 - - - - - - -
21/08:00pm 16.8 SSE 10 14 1014.1 - 0.0 - - - - - - -
21/07:30pm 17.2 SSE 12 16 1014.0 - 0.0 - - - - - - -
21/07:00pm 17.2 SSE 13 17 1014.0 - 0.0 - - - - - - -
21/06:30pm 17.4 S 11 14 1013.6 - 0.0 - - - - - - -
21/06:00pm 18.1 S 9 13 1013.3 - 0.0 - - - - - - -
21/05:30pm 18.9 S 8 12 1013.3 - 0.0 - - - - - - -
21/05:00pm 19.8 S 7 10 1013.2 - 0.0 - - - - - - -
21/04:30pm 19.6 S 7 10 1013.3 - 0.0 - - - - - - -
21/04:00pm 18.7 SSE 8 10 1013.4 - 0.0 - - - - - - -
21/03:30pm 19.5 SSE 8 10 1013.6 - 0.0 - - - - - - -
21/03:00pm 19.9 SSE 9 12 1013.5 - 0.0 - - - - - - -
21/02:30pm 19.9 SSE 9 12 1013.8 - 0.0 - - - - - - -
21/02:00pm 20.0 SSE 10 13 1014.0 - 0.0 - - - - - - -
21/01:30pm 19.2 S 12 17 1014.2 - 0.0 - - - - - - -
21/01:00pm 19.2 S 14 17 1014.3 - 0.0 - - - - - - -
21/12:30pm 19.4 S 13 18 1014.3 - 0.0 - - - - - - -
21/12:00pm 20.1 SSW 6 8 1014.3 - 0.0 - - - - - - -
21/11:30am 19.9 SSW 7 9 1014.1 - 0.0 - - - - - - -
21/11:00am 19.6 S 6 8 1013.7 - 0.0 - - - - - - -
21/10:30am 19.8 SSE 5 6 1013.8 - 0.0 - - - - - - -
21/10:00am 19.4 SE 5 7 1013.6 - 0.0 - - - - - - -
21/09:30am 18.9 E 3 5 1013.7 - 0.0 - - - - - - -
21/09:00am 18.0 ENE 2 4 1013.8 - 0.0 - - - - - - -
21/08:30am 15.4 NE 4 7 1013.7 - 0.0 - - - - - - -
21/08:00am 14.3 NE 5 7 1013.8 - 0.0 - - - - - - -
21/07:30am 13.9 NE 7 9 1013.4 - 0.0 - - - - - - -
21/07:00am 13.4 ENE 7 11 1013.4 - 0.0 - - - - - - -
21/06:30am 13.1 ENE 8 12 1013.2 - 0.0 - - - - - - -
21/06:00am 13.1 ENE 6 11 1013.1 - 0.0 - - - - - - -
21/05:30am 12.9 ENE 5 9 1013.4 - 0.0 - - - - - - -
21/05:00am 12.5 NE 3 5 1013.9 - 0.0 - - - - - - -
21/04:30am 12.9 NE 3 5 1014.1 - 0.0 - - - - - - -
21/04:00am 13.1 NE 4 7 1013.8 - 0.0 - - - - - - -
21/03:30am 13.6 NE 5 8 1013.8 - 0.0 - - - - - - -
21/03:00am 13.9 ENE 5 8 1013.7 - 0.0 - - - - - - -
21/02:30am 13.9 ENE 6 9 1014.0 - 0.0 - - - - - - -
21/02:00am 14.4 NE 5 7 1014.5 - 0.0 - - - - - - -
21/01:30am 14.4 ENE 5 7 1015.2 - 0.0 - - - - - - -
21/01:00am 14.4 E 5 7 1015.9 - 0.0 - - - - - - -
21/12:30am 14.6 ENE 5 8 1016.3 - 0.0 - - - - - - -
21/12:00am 14.8 E 5 8 1016.7 - 0.0 - - - - - - -
 
Date/Time
EDT
Temp

°C
Wind Pressure Rain
since 9am
mm
Weather Cloud Vis
km
Sea
Height
m
Swell
Dir
 
Speed
knots
Gust
knots
hPa Trend Height
m
Period
s
Dir
20/11:30pm 14.6 E 4 7 1017.0 - 0.0 - - - - - - -
20/11:00pm 14.6 ESE 4 6 1017.3 - 0.0 - - - - - - -
20/10:30pm 14.4 ESE 4 6 1017.3 - 0.0 - - - - - - -
20/10:00pm 14.7 SE 5 7 1017.4 - 0.0 - - - - - - -
20/09:30pm 14.9 SE 4 6 1017.3 - 0.0 - - - - - - -
20/09:00pm 15.4 SSE 5 7 1017.4 - 0.0 - - - - - - -
20/08:30pm 16.1 SSE 6 7 1017.4 - 0.0 - - - - - - -
20/08:00pm 16.8 SSE 6 7 1017.3 - 0.0 - - - - - - -
20/07:30pm 17.1 S 6 8 1017.2 - 0.0 - - - - - - -
20/07:00pm 17.8 S 7 9 1017.0 - 0.0 - - - - - - -
20/06:30pm 18.0 S 7 9 1017.2 - 0.0 - - - - - - -
20/06:00pm 18.3 SSW 7 10 1017.3 - 0.0 - - - - - - -
20/05:30pm 18.6 SSW 7 10 1017.4 - 0.0 - - - - - - -
20/05:00pm 18.9 SSW 8 11 1017.6 - 0.0 - - - - - - -
20/04:30pm 19.7 SSW 7 12 1017.7 - 0.0 - - - - - - -
20/04:00pm 19.6 SSW 8 11 1018.1 - 0.0 - - - - - - -
20/03:30pm 18.9 SSW 10 13 1018.5 - 0.0 - - - - - - -
20/03:00pm 19.1 SW 10 13 1018.7 - 0.0 - - - - - - -
20/02:30pm 19.3 SW 11 14 1019.1 - 0.0 - - - - - - -
20/02:00pm 19.8 SW 11 14 1019.1 - 0.0 - - - - - - -
20/01:30pm 20.3 SW 11 15 1019.3 - 0.0 - - - - - - -
20/01:00pm 20.2 SW 11 15 1019.5 - 0.0 - - - - - - -
20/12:30pm 19.8 SW 11 15 1019.5 - 0.0 - - - - - - -
20/12:00pm 18.8 WSW 9 12 1019.7 - 0.0 - - - - - - -
20/11:30am 18.4 WSW 10 13 1019.7 - 0.0 - - - - - - -
20/11:00am 18.1 WSW 9 13 1019.7 - 0.0 - - - - - - -
20/10:30am 18.0 WSW 9 13 1019.7 - 0.0 - - - - - - -
20/10:00am 18.2 WSW 10 14 1019.7 - 0.0 - - - - - - -
20/09:30am 17.0 WSW 8 12 1019.6 - 0.0 - - - - - - -
20/09:00am 16.3 W 6 12 1019.3 - 0.0 - - - - - - -
20/08:30am 15.6 WNW 3 6 1018.9 - 0.0 - - - - - - -
20/08:00am 14.6 NW 3 4 1018.7 - 0.0 - - - - - - -
20/07:30am 13.8 NW 3 6 1018.3 - 0.0 - - - - - - -
20/07:00am 12.9 NNW 4 6 1018.2 - 0.0 - - - - - - -
20/06:30am 12.4 NW 4 6 1017.9 - 0.0 - - - - - - -
20/06:00am 12.1 NNW 4 5 1017.9 - 0.0 - - - - - - -
20/05:30am 11.6 NNW 4 7 1017.8 - 0.0 - - - - - - -

Other Formats:

Comma delimited format used in spreadsheet applications
http://www.bom.gov.au/fwo/IDV60701/IDV60701.94830.axf

JavaScript Object Notation format (JSON) in row-major order
http://www.bom.gov.au/fwo/IDV60701/IDV60701.94830.json